createdAt,value
2017-08-26T00:01:08.367Z,74.40
2017-08-26T00:03:35.934Z,74.00
2017-08-26T00:06:03.548Z,74.20
2017-08-26T00:08:31.098Z,74.30
2017-08-26T00:10:58.960Z,74.60
2017-08-26T00:13:26.538Z,74.50
2017-08-26T00:15:54.098Z,74.70
2017-08-26T00:18:21.697Z,74.60
2017-08-26T00:20:49.268Z,74.50
2017-08-26T00:23:17.236Z,74.80
2017-08-26T00:25:44.809Z,74.60
2017-08-26T00:28:12.394Z,75.00
2017-08-26T00:30:40.017Z,74.60
2017-08-26T00:33:07.591Z,75.20
2017-08-26T00:35:35.563Z,74.50
2017-08-26T00:38:03.124Z,74.80
2017-08-26T00:40:30.730Z,75.10
2017-08-26T00:42:58.332Z,74.80
2017-08-26T00:45:25.914Z,75.10
2017-08-26T00:47:53.851Z,75.20
2017-08-26T00:50:21.418Z,75.30
2017-08-26T00:52:49.005Z,75.40
2017-08-26T00:55:16.607Z,75.10
2017-08-26T00:57:44.200Z,74.90
2017-08-26T01:00:12.149Z,75.20
2017-08-26T01:02:39.807Z,75.10
2017-08-26T01:05:07.384Z,75.00
2017-08-26T01:07:39.780Z,75.70
2017-08-26T01:10:07.365Z,75.70
2017-08-26T01:12:35.632Z,75.50
2017-08-26T01:15:03.399Z,75.50
2017-08-26T01:17:31.062Z,75.50
2017-08-26T01:19:58.671Z,75.90
2017-08-26T01:22:26.239Z,76.10
2017-08-26T01:24:54.312Z,76.20
2017-08-26T01:27:22.019Z,76.20
2017-08-26T01:29:49.614Z,76.20
2017-08-26T01:32:17.237Z,76.20
2017-08-26T01:34:44.787Z,76.20
2017-08-26T01:37:12.690Z,76.20
2017-08-26T01:39:40.258Z,76.20
2017-08-26T01:42:08.076Z,76.00
2017-08-26T01:44:35.740Z,76.10
2017-08-26T01:47:03.347Z,76.00
2017-08-26T01:49:30.975Z,76.00
2017-08-26T01:51:58.519Z,76.00
2017-08-26T01:54:26.247Z,76.50
2017-08-26T01:56:53.813Z,76.80
2017-08-26T01:59:21.422Z,77.00
2017-08-26T02:01:48.976Z,76.60
2017-08-26T02:04:16.598Z,76.60
2017-08-26T02:06:44.153Z,76.10
2017-08-26T02:09:11.877Z,76.70
2017-08-26T02:11:39.713Z,76.90
2017-08-26T02:14:07.325Z,77.00
2017-08-26T02:16:34.933Z,77.20
2017-08-26T02:19:02.536Z,77.30
2017-08-26T02:21:30.103Z,77.50
2017-08-26T02:23:57.726Z,76.90
2017-08-26T02:26:25.283Z,77.10
2017-08-26T02:28:52.882Z,76.90
2017-08-26T02:31:20.473Z,76.80
2017-08-26T02:33:48.278Z,77.20
2017-08-26T02:36:15.877Z,77.00
2017-08-26T02:38:43.489Z,77.30
2017-08-26T02:41:11.053Z,77.40
2017-08-26T02:43:38.693Z,77.40
2017-08-26T02:46:06.272Z,77.60
2017-08-26T02:48:33.880Z,77.40
2017-08-26T02:51:01.460Z,77.60
2017-08-26T02:53:29.019Z,77.50
2017-08-26T02:55:56.618Z,77.30
2017-08-26T02:58:24.170Z,76.50
2017-08-26T03:00:51.860Z,77.00
2017-08-26T03:03:19.419Z,77.20
2017-08-26T03:05:47.057Z,77.40
2017-08-26T03:08:14.628Z,77.20
2017-08-26T03:10:42.246Z,77.10
2017-08-26T03:13:09.818Z,76.80
2017-08-26T03:15:37.425Z,76.80
2017-08-26T03:18:04.990Z,77.10
2017-08-26T03:20:32.654Z,77.20
2017-08-26T03:23:00.227Z,77.60
2017-08-26T03:25:27.853Z,77.60
2017-08-26T03:27:55.433Z,77.10
2017-08-26T03:30:23.046Z,77.30
2017-08-26T03:32:50.617Z,77.40
2017-08-26T03:35:18.214Z,76.80
2017-08-26T03:37:45.777Z,77.10
2017-08-26T03:40:13.380Z,77.40
2017-08-26T03:42:40.947Z,77.20
2017-08-26T03:45:08.552Z,76.90
2017-08-26T03:47:36.123Z,77.10
2017-08-26T03:50:03.728Z,77.50
2017-08-26T03:52:31.396Z,77.10
2017-08-26T03:54:58.990Z,77.60
2017-08-26T03:57:26.566Z,77.70
2017-08-26T03:59:54.172Z,77.70
2017-08-26T04:02:21.736Z,77.90
2017-08-26T04:04:49.684Z,78.00
2017-08-26T04:07:17.262Z,77.90
2017-08-26T04:09:44.842Z,77.70
2017-08-26T04:12:12.551Z,77.90
2017-08-26T04:14:40.126Z,77.70
2017-08-26T04:17:07.764Z,77.60
2017-08-26T04:19:35.347Z,77.90
2017-08-26T04:22:02.962Z,77.70
2017-08-26T04:24:30.556Z,77.70
2017-08-26T04:26:58.156Z,77.70
2017-08-26T04:29:25.741Z,77.90
2017-08-26T04:31:53.305Z,77.60
2017-08-26T04:34:20.869Z,77.60
2017-08-26T04:36:48.716Z,77.40
2017-08-26T04:39:16.279Z,77.60
2017-08-26T04:41:43.898Z,77.70
2017-08-26T04:44:11.612Z,77.70
2017-08-26T04:46:39.212Z,77.70
2017-08-26T04:49:06.802Z,77.60
2017-08-26T04:51:34.413Z,77.60
2017-08-26T04:54:01.988Z,77.80
2017-08-26T04:56:29.603Z,77.70
2017-08-26T04:58:57.167Z,77.50
2017-08-26T05:01:24.791Z,77.30
2017-08-26T05:03:52.365Z,77.30
2017-08-26T05:06:19.985Z,77.20
2017-08-26T05:08:47.570Z,76.80
2017-08-26T05:11:15.181Z,76.80
2017-08-26T05:13:42.737Z,76.50
2017-08-26T05:16:10.352Z,76.90
2017-08-26T05:18:37.916Z,76.90
2017-08-26T05:21:05.632Z,76.70
2017-08-26T05:23:33.191Z,77.00
2017-08-26T05:26:00.771Z,77.30
2017-08-26T05:28:28.430Z,77.20
2017-08-26T05:30:56.054Z,77.10
2017-08-26T05:33:24.024Z,77.10
2017-08-26T05:35:51.595Z,76.90
2017-08-26T05:38:19.241Z,76.60
2017-08-26T05:40:46.819Z,76.40
2017-08-26T05:43:14.412Z,76.40
2017-08-26T05:45:41.972Z,76.50
2017-08-26T05:48:09.572Z,76.60
2017-08-26T05:50:37.130Z,76.80
2017-08-26T05:53:04.752Z,76.60
2017-08-26T05:55:32.336Z,76.10
2017-08-26T05:57:59.941Z,76.50
2017-08-26T06:00:27.513Z,76.40
2017-08-26T06:02:55.130Z,76.40
2017-08-26T06:05:22.707Z,76.50
2017-08-26T06:07:50.319Z,76.50
2017-08-26T06:10:18.586Z,76.50
2017-08-26T06:12:46.207Z,76.60
2017-08-26T06:15:13.786Z,76.60
2017-08-26T06:17:41.435Z,76.60
2017-08-26T06:20:09.013Z,76.60
2017-08-26T06:22:36.631Z,76.70
2017-08-26T06:25:04.212Z,76.70
2017-08-26T06:27:31.827Z,76.70
2017-08-26T06:29:59.402Z,76.70
2017-08-26T06:32:27.012Z,76.80
2017-08-26T06:34:54.625Z,76.80
2017-08-26T06:37:22.333Z,76.80
2017-08-26T06:39:49.916Z,76.80
2017-08-26T06:42:17.480Z,76.90
2017-08-26T06:44:45.084Z,77.00
2017-08-26T06:47:12.649Z,76.70
2017-08-26T06:49:40.247Z,76.70
2017-08-26T06:52:07.803Z,76.50
2017-08-26T06:54:35.659Z,76.50
2017-08-26T06:57:03.236Z,76.50
2017-08-26T06:59:30.830Z,76.50
2017-08-26T07:01:58.529Z,76.50
2017-08-26T07:04:26.137Z,76.50
2017-08-26T07:06:53.959Z,76.50
2017-08-26T07:09:21.563Z,76.40
2017-08-26T07:11:49.128Z,76.10
2017-08-26T07:14:16.739Z,76.40
2017-08-26T07:16:44.300Z,76.50
2017-08-26T07:19:11.914Z,76.30
2017-08-26T07:21:39.492Z,76.20
2017-08-26T07:24:07.103Z,76.30
2017-08-26T07:26:34.692Z,76.10
2017-08-26T07:29:02.325Z,76.10
2017-08-26T07:31:29.893Z,75.90
2017-08-26T07:33:57.496Z,76.00
2017-08-26T07:36:25.386Z,75.80
2017-08-26T07:38:52.984Z,75.80
2017-08-26T07:41:20.529Z,76.00
2017-08-26T07:43:48.145Z,75.80
2017-08-26T07:46:15.708Z,76.40
2017-08-26T07:48:43.370Z,76.60
2017-08-26T07:51:10.929Z,76.70
2017-08-26T07:53:38.590Z,77.10
2017-08-26T07:56:06.177Z,77.30
2017-08-26T07:58:33.741Z,77.30
2017-08-26T08:01:01.348Z,77.80
2017-08-26T08:03:28.937Z,77.30
2017-08-26T08:05:56.530Z,77.40
2017-08-26T08:08:24.110Z,77.50
2017-08-26T08:10:51.964Z,77.60
2017-08-26T08:13:19.523Z,77.70
2017-08-26T08:15:47.141Z,77.80
2017-08-26T08:18:14.875Z,77.90
2017-08-26T08:20:43.254Z,77.60
2017-08-26T08:23:10.821Z,77.30
2017-08-26T08:25:38.432Z,77.10
2017-08-26T08:28:06.010Z,77.10
2017-08-26T08:30:33.633Z,77.10
2017-08-26T08:33:01.196Z,77.80
2017-08-26T08:35:28.804Z,77.40
2017-08-26T08:37:56.355Z,77.50
2017-08-26T08:40:23.968Z,77.60
2017-08-26T08:42:51.643Z,77.80
2017-08-26T08:45:19.367Z,77.80
2017-08-26T08:47:46.947Z,77.70
2017-08-26T08:50:14.562Z,77.60
2017-08-26T08:52:42.141Z,77.70
2017-08-26T08:55:09.745Z,78.10
2017-08-26T08:57:37.321Z,78.30
2017-08-26T09:00:04.935Z,78.50
2017-08-26T09:02:32.497Z,78.40
2017-08-26T09:05:00.116Z,78.50
2017-08-26T09:07:27.666Z,79.00
2017-08-26T09:09:56.173Z,79.30
2017-08-26T09:12:23.738Z,79.60
2017-08-26T09:14:52.389Z,80.10
2017-08-26T09:17:19.982Z,80.10
2017-08-26T09:19:47.573Z,80.30
2017-08-26T09:22:15.217Z,80.50
2017-08-26T09:24:42.811Z,80.90
2017-08-26T09:27:10.457Z,80.90
2017-08-26T09:29:38.156Z,80.70
2017-08-26T09:32:05.763Z,80.50
2017-08-26T09:34:33.340Z,80.50
2017-08-26T09:37:00.943Z,80.40
2017-08-26T09:39:28.532Z,80.40
2017-08-26T09:41:56.160Z,80.40
2017-08-26T09:44:23.766Z,80.10
2017-08-26T09:46:51.372Z,80.10
2017-08-26T09:49:18.946Z,80.00
2017-08-26T09:51:46.548Z,79.40
2017-08-26T09:54:14.145Z,79.30
2017-08-26T09:56:41.753Z,79.00
2017-08-26T09:59:09.318Z,78.40
2017-08-26T10:01:36.951Z,78.40
2017-08-26T10:04:04.643Z,78.50
2017-08-26T10:06:32.241Z,78.30
2017-08-26T10:08:59.810Z,77.90
2017-08-26T10:11:27.408Z,77.60
2017-08-26T10:13:54.970Z,77.30
2017-08-26T10:16:22.565Z,77.60
2017-08-26T10:18:50.145Z,76.40
2017-08-26T10:21:17.760Z,76.20
2017-08-26T10:23:45.311Z,75.60
2017-08-26T10:26:12.925Z,74.90
2017-08-26T10:28:40.493Z,75.00
2017-08-26T10:31:08.465Z,75.20
2017-08-26T10:33:36.046Z,75.20
2017-08-26T10:36:03.620Z,74.60
2017-08-26T10:38:31.239Z,74.50
2017-08-26T10:40:58.825Z,74.20
2017-08-26T10:43:26.428Z,73.80
2017-08-26T10:45:53.979Z,74.00
2017-08-26T10:48:21.750Z,73.80
2017-08-26T10:50:49.307Z,73.70
2017-08-26T10:53:16.982Z,73.20
2017-08-26T10:55:44.531Z,72.60
2017-08-26T10:58:12.143Z,71.90
2017-08-26T11:00:39.716Z,71.70
2017-08-26T11:03:07.325Z,71.90
2017-08-26T11:05:35.085Z,72.00
2017-08-26T11:08:02.785Z,72.00
2017-08-26T11:10:30.919Z,71.70
2017-08-26T11:12:58.796Z,71.80
2017-08-26T11:15:26.355Z,71.30
2017-08-26T11:17:53.939Z,71.20
2017-08-26T11:20:21.493Z,71.20
2017-08-26T11:22:49.335Z,71.30
2017-08-26T11:25:16.916Z,71.30
2017-08-26T11:27:44.531Z,71.30
2017-08-26T11:30:12.110Z,71.30
2017-08-26T11:32:39.715Z,71.40
2017-08-26T11:35:07.295Z,71.50
2017-08-26T11:37:34.906Z,71.50
2017-08-26T11:40:02.467Z,71.50
2017-08-26T11:42:30.084Z,71.70
2017-08-26T11:44:57.674Z,71.60
2017-08-26T11:47:25.640Z,71.30
2017-08-26T11:49:53.197Z,71.10
2017-08-26T11:52:20.760Z,70.80
2017-08-26T11:54:48.351Z,70.70
2017-08-26T11:57:15.925Z,70.60
2017-08-26T11:59:43.560Z,70.60
2017-08-26T12:02:11.937Z,70.60
2017-08-26T12:04:39.585Z,70.70
2017-08-26T12:07:07.160Z,70.90
2017-08-26T12:09:34.749Z,70.80
2017-08-26T12:12:02.300Z,71.30
2017-08-26T12:14:29.913Z,71.30
2017-08-26T12:16:57.473Z,71.40
2017-08-26T12:19:25.078Z,72.00
2017-08-26T12:21:52.793Z,71.40
2017-08-26T12:24:20.404Z,71.10
2017-08-26T12:26:48.104Z,70.80
2017-08-26T12:29:15.705Z,70.60
2017-08-26T12:31:43.251Z,70.10
2017-08-26T12:34:10.849Z,69.70
2017-08-26T12:36:38.423Z,69.30
2017-08-26T12:39:06.020Z,69.00
2017-08-26T12:41:33.588Z,68.90
2017-08-26T12:44:01.200Z,69.00
2017-08-26T12:46:28.770Z,69.30
2017-08-26T12:48:56.370Z,69.40
2017-08-26T12:51:23.944Z,69.50
2017-08-26T12:53:51.563Z,69.70
2017-08-26T12:56:19.130Z,70.00
2017-08-26T12:58:46.709Z,70.00
2017-08-26T13:01:14.260Z,70.10
2017-08-26T13:03:42.287Z,70.00
2017-08-26T13:06:09.884Z,70.30
2017-08-26T13:08:37.452Z,70.10
2017-08-26T13:11:05.074Z,70.30
2017-08-26T13:13:32.788Z,70.10
2017-08-26T13:16:00.391Z,69.90
2017-08-26T13:18:27.956Z,69.00
2017-08-26T13:20:55.577Z,67.70
2017-08-26T13:23:23.145Z,67.40
2017-08-26T13:25:50.758Z,66.10
2017-08-26T13:28:18.310Z,64.70
2017-08-26T13:30:46.163Z,65.00
2017-08-26T13:33:13.726Z,63.80
2017-08-26T13:35:41.342Z,62.60
2017-08-26T13:38:08.917Z,61.80
2017-08-26T13:40:36.538Z,61.10
2017-08-26T13:43:04.110Z,61.10
2017-08-26T13:45:31.726Z,60.10
2017-08-26T13:47:59.296Z,59.10
2017-08-26T13:50:26.943Z,58.00
2017-08-26T13:52:54.518Z,56.20
2017-08-26T13:55:22.121Z,56.20
2017-08-26T13:57:49.688Z,56.10
2017-08-26T14:00:17.258Z,55.00
2017-08-26T14:02:44.822Z,54.50
2017-08-26T14:05:12.460Z,52.80
2017-08-26T14:07:40.031Z,52.20
2017-08-26T14:10:07.629Z,50.80
2017-08-26T14:12:35.193Z,50.60
2017-08-26T14:15:02.798Z,49.70
2017-08-26T14:17:30.344Z,49.00
2017-08-26T14:19:58.391Z,50.30
2017-08-26T14:22:25.966Z,50.40
2017-08-26T14:24:53.532Z,51.10
2017-08-26T14:27:21.136Z,52.90
2017-08-26T14:29:48.727Z,54.50
2017-08-26T14:32:16.336Z,55.00
2017-08-26T14:34:43.905Z,55.50
2017-08-26T14:37:11.551Z,56.90
2017-08-26T14:39:39.107Z,57.40
2017-08-26T14:42:07.665Z,58.50
2017-08-26T14:44:35.221Z,59.00
2017-08-26T14:47:02.819Z,59.90
2017-08-26T14:49:30.385Z,60.60
2017-08-26T14:51:57.983Z,60.80
2017-08-26T14:54:25.563Z,61.20
2017-08-26T14:56:53.168Z,61.60
2017-08-26T14:59:20.724Z,61.90
2017-08-26T15:01:48.347Z,62.20
2017-08-26T15:04:15.934Z,62.30
2017-08-26T15:06:43.546Z,62.40
2017-08-26T15:09:11.121Z,62.70
2017-08-26T15:11:38.711Z,62.90
2017-08-26T15:14:06.283Z,63.50
2017-08-26T15:16:34.623Z,63.20
2017-08-26T15:19:02.204Z,63.00
2017-08-26T15:21:29.937Z,63.60
2017-08-26T15:23:57.503Z,63.60
2017-08-26T15:26:25.112Z,63.60
2017-08-26T15:28:52.687Z,63.60
2017-08-26T15:31:20.317Z,63.60
2017-08-26T15:33:47.889Z,63.60
2017-08-26T15:36:15.896Z,63.60
2017-08-26T15:38:43.450Z,63.60
2017-08-26T15:41:11.021Z,64.40
2017-08-26T15:43:38.661Z,63.50
2017-08-26T15:46:06.256Z,63.50
2017-08-26T15:51:07.635Z,63.40
2017-08-26T15:53:35.258Z,63.40
2017-08-26T15:56:02.879Z,63.40
2017-08-26T15:58:30.470Z,63.40
2017-08-26T16:00:58.045Z,63.50
2017-08-26T16:03:25.670Z,63.70
2017-08-26T16:05:53.233Z,64.50
2017-08-26T16:08:20.855Z,63.70
2017-08-26T16:10:48.430Z,64.10
2017-08-26T16:13:16.042Z,64.40
2017-08-26T16:15:43.617Z,64.70
2017-08-26T16:18:11.232Z,64.90
2017-08-26T16:20:39.002Z,65.20
2017-08-26T16:23:06.588Z,65.40
2017-08-26T16:25:34.173Z,65.70
2017-08-26T16:28:02.700Z,65.60
2017-08-26T16:30:30.265Z,65.90
2017-08-26T16:32:57.870Z,66.30
2017-08-26T16:35:25.443Z,66.50
2017-08-26T16:37:53.046Z,66.60
2017-08-26T16:40:20.668Z,66.60
2017-08-26T16:42:48.261Z,66.70
2017-08-26T16:45:15.824Z,66.70
2017-08-26T16:47:43.449Z,67.10
2017-08-26T16:50:11.016Z,67.20
2017-08-26T16:52:38.608Z,67.50
2017-08-26T16:55:06.185Z,67.70
2017-08-26T16:57:33.781Z,67.90
2017-08-26T17:00:01.426Z,68.10
2017-08-26T17:02:29.030Z,68.50
2017-08-26T17:04:56.641Z,68.90
2017-08-26T17:07:24.220Z,69.20
2017-08-26T17:09:51.824Z,68.80
2017-08-26T17:12:19.419Z,69.60
2017-08-26T17:14:47.046Z,69.70
2017-08-26T17:17:14.607Z,69.60
2017-08-26T17:19:42.209Z,69.70
2017-08-26T17:22:09.780Z,69.90
2017-08-26T17:24:37.742Z,69.90
2017-08-26T17:27:05.321Z,70.20
2017-08-26T17:29:32.956Z,71.00
2017-08-26T17:32:00.535Z,71.10
2017-08-26T17:34:28.151Z,71.10
2017-08-26T17:36:55.752Z,71.10
2017-08-26T17:39:23.654Z,71.00
2017-08-26T17:41:51.234Z,71.10
2017-08-26T17:44:18.867Z,71.00
2017-08-26T17:46:46.448Z,71.00
2017-08-26T17:49:14.053Z,71.00
2017-08-26T17:51:41.638Z,71.30
2017-08-26T17:54:09.515Z,71.30
2017-08-26T17:56:37.073Z,81.70
2017-08-26T17:59:04.688Z,92.20
2017-08-26T18:01:32.243Z,94.20
2017-08-26T18:03:59.874Z,94.00
2017-08-26T18:06:27.451Z,93.60
2017-08-26T18:08:55.103Z,93.80
2017-08-26T18:11:22.775Z,93.90
2017-08-26T18:13:50.353Z,94.30
2017-08-26T18:16:17.974Z,94.30
2017-08-26T18:18:45.570Z,94.20
2017-08-26T18:21:13.186Z,94.10
2017-08-26T18:23:40.762Z,94.40
2017-08-26T18:26:08.386Z,94.70
2017-08-26T18:28:35.964Z,95.00
2017-08-26T18:31:03.565Z,94.80
2017-08-26T18:33:31.151Z,95.00
2017-08-26T18:35:58.822Z,95.00
2017-08-26T18:38:26.419Z,95.20
2017-08-26T18:40:54.052Z,95.40
2017-08-26T18:43:21.620Z,95.40
2017-08-26T18:45:49.252Z,95.70
2017-08-26T18:48:16.996Z,95.50
2017-08-26T18:50:44.635Z,95.40
2017-08-26T18:53:12.244Z,95.70
2017-08-26T18:55:39.866Z,96.10
2017-08-26T18:58:07.447Z,96.10
2017-08-26T19:00:35.104Z,96.10
2017-08-26T19:03:02.688Z,96.40
2017-08-26T19:05:30.314Z,96.00
2017-08-26T19:07:57.872Z,96.00
2017-08-26T19:10:25.487Z,95.90
2017-08-26T19:12:53.064Z,96.00
2017-08-26T19:15:20.669Z,96.00
2017-08-26T19:17:48.256Z,96.00
2017-08-26T19:20:15.907Z,96.20
2017-08-26T19:22:43.491Z,96.00
2017-08-26T19:25:11.518Z,96.00
2017-08-26T19:27:39.094Z,96.10
2017-08-26T19:30:06.669Z,96.40
2017-08-26T19:32:34.298Z,96.60
2017-08-26T19:35:01.880Z,96.70
2017-08-26T19:37:29.503Z,97.00
2017-08-26T19:39:57.080Z,97.20
2017-08-26T19:42:24.700Z,97.80
2017-08-26T19:44:52.264Z,97.80
2017-08-26T19:47:19.877Z,97.70
2017-08-26T19:49:47.504Z,97.60
2017-08-26T19:52:15.136Z,97.40
2017-08-26T19:54:42.716Z,97.40
2017-08-26T19:57:10.363Z,97.50
2017-08-26T19:59:37.945Z,97.40
2017-08-26T20:02:05.543Z,97.50
2017-08-26T20:04:33.292Z,97.40
2017-08-26T20:07:00.905Z,97.50
2017-08-26T20:09:28.493Z,97.50
2017-08-26T20:11:56.125Z,97.70
2017-08-26T20:14:23.704Z,97.70
2017-08-26T20:16:51.340Z,97.70
2017-08-26T20:19:18.910Z,97.60
2017-08-26T20:21:46.538Z,97.80
2017-08-26T20:24:14.331Z,97.90
2017-08-26T20:26:41.993Z,97.80
2017-08-26T20:29:09.583Z,97.80
2017-08-26T20:31:37.185Z,97.80
2017-08-26T20:34:04.756Z,98.00
2017-08-26T20:36:32.352Z,97.90
2017-08-26T20:38:59.916Z,97.80
2017-08-26T20:41:27.493Z,97.90
2017-08-26T20:43:55.114Z,97.60
2017-08-26T20:46:22.690Z,97.50
2017-08-26T20:48:50.300Z,97.50
2017-08-26T20:51:17.871Z,97.50
2017-08-26T20:53:45.580Z,97.50
2017-08-26T20:56:13.150Z,97.60
2017-08-26T20:58:40.738Z,97.60
2017-08-26T21:01:08.341Z,97.80
2017-08-26T21:03:35.940Z,97.50
2017-08-26T21:06:03.586Z,97.70
2017-08-26T21:08:31.210Z,97.90
2017-08-26T21:10:58.789Z,97.80
2017-08-26T21:13:26.448Z,98.10
2017-08-26T21:15:54.026Z,97.70
2017-08-26T21:18:21.618Z,97.90
2017-08-26T21:20:49.188Z,97.50
2017-08-26T21:23:16.801Z,97.30
2017-08-26T21:25:44.453Z,97.10
2017-08-26T21:28:12.152Z,97.00
2017-08-26T21:30:39.729Z,96.90
2017-08-26T21:33:07.357Z,96.80
2017-08-26T21:35:35.091Z,96.90
2017-08-26T21:38:02.740Z,96.90
2017-08-26T21:40:30.347Z,96.90
2017-08-26T21:42:57.968Z,96.90
2017-08-26T21:45:25.557Z,96.90
2017-08-26T21:47:53.208Z,97.00
2017-08-26T21:50:20.785Z,97.00
2017-08-26T21:52:48.403Z,97.20
2017-08-26T21:55:16.072Z,97.20
2017-08-26T21:57:43.654Z,97.10
2017-08-26T22:00:11.318Z,97.10
2017-08-26T22:02:38.894Z,97.10
2017-08-26T22:05:06.576Z,97.10
2017-08-26T22:07:34.161Z,97.10
2017-08-26T22:10:01.781Z,97.10
2017-08-26T22:12:29.361Z,97.20
2017-08-26T22:14:56.994Z,97.20
2017-08-26T22:17:24.583Z,97.10
2017-08-26T22:19:52.238Z,97.20
2017-08-26T22:22:20.781Z,97.00
2017-08-26T22:24:48.447Z,97.00
2017-08-26T22:27:16.303Z,97.00
2017-08-26T22:29:43.969Z,97.00
2017-08-26T22:32:11.550Z,96.90
2017-08-26T22:34:39.362Z,97.00
2017-08-26T22:37:06.923Z,97.10
2017-08-26T22:39:34.563Z,97.00
2017-08-26T22:42:02.166Z,97.10
2017-08-26T22:44:29.802Z,96.90
2017-08-26T22:46:57.371Z,96.70
2017-08-26T22:49:25.010Z,96.60
2017-08-26T22:51:52.582Z,96.70
2017-08-26T22:54:20.201Z,96.70
2017-08-26T22:56:47.770Z,96.70
2017-08-26T22:59:15.386Z,96.80
2017-08-26T23:01:43.802Z,96.80
2017-08-26T23:04:11.438Z,96.90
2017-08-26T23:06:39.005Z,96.90
2017-08-26T23:09:06.595Z,96.90
2017-08-26T23:11:34.177Z,96.80
2017-08-26T23:14:01.741Z,96.70
2017-08-26T23:16:29.354Z,96.70
2017-08-26T23:18:56.964Z,96.80
2017-08-26T23:21:24.705Z,96.80
2017-08-26T23:23:52.275Z,96.90
2017-08-26T23:26:20.039Z,96.90
2017-08-26T23:28:47.604Z,97.00
2017-08-26T23:31:15.223Z,97.00
2017-08-26T23:33:42.793Z,97.10
2017-08-26T23:36:10.395Z,97.00
2017-08-26T23:38:37.945Z,97.00
2017-08-26T23:41:05.554Z,97.00
2017-08-26T23:43:33.107Z,97.00
2017-08-26T23:46:00.700Z,96.90
2017-08-26T23:48:28.383Z,96.90
2017-08-26T23:50:55.985Z,96.80
2017-08-26T23:53:23.556Z,96.80
2017-08-26T23:55:51.156Z,96.80
2017-08-26T23:58:18.726Z,97.00
